Time;durP1;ratioP1;P1;durP2;ratioP2;P2;SDS_P1;SDS_P2;PMS_P1;PMS_P2;Temp;Humidity;BMP_temperature;BMP_pressure;BME280_temperature;BME280_humidity;BME280_pressure;Samples;Min_cycle;Max_cycle;Signal;HPM_P1;HPM_P2
2022/02/27 00:02:13;;;;;;;0.08;0.08;;;4.30;99.90;;;;;;5035014;28;20056;-72
2022/02/27 00:04:38;;;;;;;0.00;0.00;;;4.20;99.90;;;;;;5035726;28;20033;-75
2022/02/27 00:07:04;;;;;;;0.00;0.00;;;4.20;99.90;;;;;;5033724;28;20021;-75
2022/02/27 00:09:30;;;;;;;0.00;0.00;;;4.10;99.90;;;;;;5035549;28;20083;-72
2022/02/27 00:11:56;;;;;;;0.10;0.10;;;4.10;99.90;;;;;;5036543;28;20388;-76
2022/02/27 00:14:22;;;;;;;0.00;0.00;;;4.10;99.90;;;;;;5035522;28;20116;-71
2022/02/27 00:16:47;;;;;;;0.03;0.03;;;4.10;99.90;;;;;;5034507;28;20138;-72
2022/02/27 00:19:14;;;;;;;0.00;0.00;;;4.10;99.90;;;;;;5035211;28;20449;-75
2022/02/27 00:21:40;;;;;;;0.10;0.10;;;4.00;99.90;;;;;;5035413;28;20031;-72
2022/02/27 00:24:06;;;;;;;0.00;0.00;;;4.00;99.90;;;;;;5033681;28;20495;-75
2022/02/27 00:26:32;;;;;;;0.25;0.25;;;4.00;99.90;;;;;;5035840;28;20361;-72
2022/02/27 00:28:57;;;;;;;3.65;0.55;;;3.90;99.90;;;;;;5035169;28;20029;-75
2022/02/27 00:31:23;;;;;;;0.00;0.00;;;3.90;99.90;;;;;;5035413;28;20083;-71
2022/02/27 00:33:49;;;;;;;0.00;0.00;;;3.90;99.90;;;;;;5035462;28;20395;-72
2022/02/27 00:36:15;;;;;;;0.00;0.00;;;3.90;99.90;;;;;;5035330;28;20026;-75
2022/02/27 00:38:40;;;;;;;0.00;0.00;;;3.90;99.90;;;;;;5027799;28;20389;-75
2022/02/27 00:41:06;;;;;;;1.60;0.98;;;3.90;99.90;;;;;;5015266;28;20034;-75
2022/02/27 00:43:32;;;;;;;0.00;0.00;;;3.80;99.90;;;;;;5015306;28;20513;-72
2022/02/27 00:45:58;;;;;;;1.55;0.52;;;3.80;99.90;;;;;;5015303;28;20105;-75
2022/02/27 00:48:23;;;;;;;0.00;0.00;;;3.80;99.90;;;;;;5016332;28;20076;-75
2022/02/27 00:50:49;;;;;;;0.43;0.38;;;3.80;99.90;;;;;;5034477;28;20033;-75
2022/02/27 00:53:15;;;;;;;0.10;0.10;;;3.80;99.90;;;;;;5034402;28;20037;-75
2022/02/27 00:55:41;;;;;;;0.55;0.52;;;3.80;99.90;;;;;;5035017;28;20017;-72
2022/02/27 00:58:07;;;;;;;0.20;0.20;;;3.80;99.90;;;;;;5033636;28;20037;-75
2022/02/27 01:00:32;;;;;;;0.75;0.52;;;3.70;99.90;;;;;;5038879;28;20082;-75
2022/02/27 01:02:58;;;;;;;0.00;0.00;;;3.80;99.90;;;;;;5033983;28;20022;-75
2022/02/27 01:05:24;;;;;;;0.10;0.10;;;3.70;99.90;;;;;;5034484;28;20017;-75
2022/02/27 01:07:49;;;;;;;0.00;0.00;;;3.70;99.90;;;;;;5033504;28;20033;-75
2022/02/27 01:10:15;;;;;;;0.77;0.77;;;3.80;99.90;;;;;;5034528;28;20021;-72
2022/02/27 01:12:41;;;;;;;0.63;0.45;;;3.80;99.90;;;;;;5033696;28;20032;-72
2022/02/27 01:15:08;;;;;;;0.10;0.10;;;3.80;99.90;;;;;;5034349;28;20473;-74
2022/02/27 01:17:35;;;;;;;0.03;0.03;;;3.80;99.90;;;;;;5033449;28;20048;-75
2022/02/27 01:20:00;;;;;;;0.30;0.30;;;3.80;99.90;;;;;;5034148;28;20100;-72
2022/02/27 01:22:26;;;;;;;1.05;0.50;;;3.90;99.90;;;;;;5033791;28;20075;-75
2022/02/27 01:24:52;;;;;;;0.05;0.05;;;3.90;99.90;;;;;;5034141;28;20029;-76
2022/02/27 01:27:17;;;;;;;0.55;0.30;;;4.00;99.90;;;;;;5033409;28;20544;-72
2022/02/27 01:29:43;;;;;;;0.00;0.00;;;4.00;99.90;;;;;;5033588;28;20059;-75
2022/02/27 01:32:09;;;;;;;0.00;0.00;;;4.00;99.90;;;;;;5034006;28;20037;-75
2022/02/27 01:34:34;;;;;;;0.40;0.40;;;4.00;99.90;;;;;;5034194;28;20033;-75
2022/02/27 01:37:00;;;;;;;3.20;1.17;;;4.00;99.90;;;;;;5033882;28;20064;-75
2022/02/27 01:39:26;;;;;;;0.00;0.00;;;4.00;99.90;;;;;;5034304;28;20029;-72
2022/02/27 01:41:51;;;;;;;0.10;0.10;;;4.00;99.90;;;;;;5033693;28;20026;-72
2022/02/27 01:44:17;;;;;;;0.38;0.20;;;4.00;99.90;;;;;;5033717;28;20570;-75
2022/02/27 01:47:15;;;;;;;0.00;0.00;;;4.00;99.90;;;;;;5034451;28;20037;-75
2022/02/27 01:49:45;;;;;;;0.22;0.22;;;4.00;99.90;;;;;;5035462;28;20049;-72
2022/02/27 01:52:12;;;;;;;0.00;0.00;;;3.90;99.90;;;;;;5033304;28;20136;-75
2022/02/27 01:54:38;;;;;;;0.00;0.00;;;3.90;99.90;;;;;;5033304;28;20080;-72
2022/02/27 01:57:04;;;;;;;1.77;1.17;;;4.00;99.90;;;;;;5033883;28;20068;-75
2022/02/27 01:59:30;;;;;;;0.00;0.00;;;4.00;99.90;;;;;;5033730;28;20143;-75
2022/02/27 02:01:56;;;;;;;0.00;0.00;;;4.00;99.90;;;;;;5032764;28;20025;-72
2022/02/27 02:04:22;;;;;;;2.10;1.02;;;4.00;99.90;;;;;;5031823;28;20029;-75
2022/02/27 02:06:47;;;;;;;0.30;0.15;;;4.00;99.90;;;;;;5032983;28;20025;-75
2022/02/27 02:09:14;;;;;;;0.00;0.00;;;4.00;99.90;;;;;;5032148;28;20041;-71
2022/02/27 02:11:40;;;;;;;6.03;0.35;;;4.00;99.90;;;;;;5033058;28;20030;-75
2022/02/27 02:14:06;;;;;;;0.00;0.00;;;4.00;99.90;;;;;;5033175;28;20414;-71
2022/02/27 02:16:44;;;;;;;0.20;0.20;;;4.00;99.90;;;;;;5025520;28;20496;-72
2022/02/27 02:19:10;;;;;;;1.70;1.10;;;4.00;99.90;;;;;;5013443;28;20076;-75
2022/02/27 02:21:42;;;;;;;0.43;0.43;;;4.00;99.90;;;;;;5013596;28;20558;-75
2022/02/27 02:24:08;;;;;;;0.00;0.00;;;4.00;99.90;;;;;;5013532;28;20532;-75
2022/02/27 02:26:35;;;;;;;3.13;1.10;;;4.00;99.90;;;;;;5013904;28;20022;-71
2022/02/27 02:29:02;;;;;;;0.00;0.00;;;4.00;99.90;;;;;;5013445;28;20030;-75
2022/02/27 02:31:27;;;;;;;0.05;0.05;;;3.90;99.90;;;;;;5012089;28;20421;-75
2022/02/27 02:33:53;;;;;;;0.00;0.00;;;3.90;99.90;;;;;;5014665;28;20026;-72
2022/02/27 02:36:18;;;;;;;0.43;0.43;;;3.90;99.90;;;;;;5013742;28;20030;-75
2022/02/27 02:38:44;;;;;;;0.20;0.20;;;3.80;99.90;;;;;;5032598;28;20021;-72
2022/02/27 02:41:10;;;;;;;0.00;0.00;;;3.80;99.90;;;;;;5032865;28;20207;-72
2022/02/27 02:43:36;;;;;;;0.00;0.00;;;3.80;99.90;;;;;;5033059;28;20043;-75
2022/02/27 02:46:01;;;;;;;5.88;1.10;;;3.70;99.90;;;;;;5032974;28;20022;-75
2022/02/27 02:48:27;;;;;;;0.10;0.10;;;3.70;99.90;;;;;;5034457;28;20048;-71
2022/02/27 02:50:52;;;;;;;0.32;0.32;;;3.70;99.90;;;;;;5032751;28;20029;-71
2022/02/27 02:53:18;;;;;;;0.00;0.00;;;3.70;99.90;;;;;;5032404;28;20025;-75
2022/02/27 02:55:44;;;;;;;0.30;0.30;;;3.70;99.90;;;;;;5033362;28;20041;-72
2022/02/27 02:58:09;;;;;;;0.00;0.00;;;3.70;99.90;;;;;;5033532;28;20025;-75
2022/02/27 03:00:35;;;;;;;0.00;0.00;;;3.70;99.90;;;;;;5035037;28;20029;-72
2022/02/27 03:03:01;;;;;;;0.38;0.38;;;3.60;99.90;;;;;;5032488;28;20132;-75
2022/02/27 03:05:27;;;;;;;0.00;0.00;;;3.60;99.90;;;;;;5032323;28;20033;-75
2022/02/27 03:07:53;;;;;;;0.00;0.00;;;3.60;99.90;;;;;;5032748;28;20018;-72
2022/02/27 03:10:18;;;;;;;0.30;0.30;;;3.60;99.90;;;;;;5031277;28;20111;-75
2022/02/27 03:12:44;;;;;;;0.00;0.00;;;3.60;99.90;;;;;;5034230;28;20025;-72
2022/02/27 03:15:10;;;;;;;0.10;0.10;;;3.70;99.90;;;;;;5032680;28;20036;-75
2022/02/27 03:17:35;;;;;;;0.52;0.52;;;3.70;99.90;;;;;;5016301;28;20026;-75
2022/02/27 03:20:02;;;;;;;0.00;0.00;;;3.80;99.90;;;;;;5012636;28;20485;-75
2022/02/27 03:22:28;;;;;;;0.57;0.57;;;3.90;99.90;;;;;;5015940;28;20550;-75
2022/02/27 03:24:54;;;;;;;0.10;0.10;;;3.90;99.90;;;;;;5016545;28;20037;-72
2022/02/27 03:27:19;;;;;;;0.08;0.08;;;3.90;99.90;;;;;;5016688;28;20026;-75
2022/02/27 03:29:45;;;;;;;0.00;0.00;;;4.00;99.90;;;;;;5016721;28;20037;-75
2022/02/27 03:32:10;;;;;;;0.00;0.00;;;4.10;99.90;;;;;;5016605;28;20370;-75
2022/02/27 03:34:36;;;;;;;0.38;0.38;;;4.10;99.90;;;;;;5016622;28;20040;-73
2022/02/27 03:37:03;;;;;;;0.22;0.15;;;4.20;99.90;;;;;;5023706;28;20036;-72
2022/02/27 03:39:29;;;;;;;0.32;0.32;;;4.30;99.90;;;;;;5036080;28;20064;-75
2022/02/27 03:41:54;;;;;;;0.00;0.00;;;4.20;99.90;;;;;;5036121;28;20026;-75
2022/02/27 03:44:20;;;;;;;0.00;0.00;;;4.30;99.90;;;;;;5035890;28;20526;-72
2022/02/27 03:46:46;;;;;;;0.00;0.00;;;4.30;99.90;;;;;;5035756;28;20029;-75
2022/02/27 03:49:11;;;;;;;0.13;0.13;;;4.30;99.90;;;;;;5035624;28;20033;-71
2022/02/27 03:51:37;;;;;;;0.85;0.57;;;4.40;99.90;;;;;;5035846;28;20033;-74
2022/02/27 03:54:04;;;;;;;0.00;0.00;;;4.40;99.90;;;;;;5035611;28;20054;-75
2022/02/27 03:56:30;;;;;;;2.35;0.75;;;4.40;99.90;;;;;;5035729;28;20045;-75
2022/02/27 03:58:56;;;;;;;0.00;0.00;;;4.40;99.90;;;;;;5036036;28;20057;-72
2022/02/27 04:01:21;;;;;;;2.40;0.75;;;4.40;99.90;;;;;;5035725;28;20025;-75
2022/02/27 04:03:47;;;;;;;0.13;0.13;;;4.40;99.90;;;;;;5036508;28;20026;-75
2022/02/27 04:06:13;;;;;;;0.03;0.03;;;4.40;99.90;;;;;;5035826;28;20029;-75
2022/02/27 04:08:40;;;;;;;0.00;0.00;;;4.40;99.90;;;;;;5035404;28;20039;-75
2022/02/27 04:11:06;;;;;;;0.00;0.00;;;4.40;99.90;;;;;;5035055;28;20072;-72
2022/02/27 04:13:33;;;;;;;0.00;0.00;;;4.50;99.90;;;;;;5035246;28;20036;-75
2022/02/27 04:15:58;;;;;;;0.00;0.00;;;4.50;99.90;;;;;;5034943;28;20048;-72
2022/02/27 04:18:24;;;;;;;0.43;0.43;;;4.60;99.90;;;;;;5035177;28;20029;-75
2022/02/27 04:20:50;;;;;;;0.32;0.32;;;4.60;99.90;;;;;;5034808;28;20022;-75
2022/02/27 04:23:15;;;;;;;0.35;0.35;;;4.60;99.90;;;;;;5035032;28;20025;-72
2022/02/27 04:25:41;;;;;;;0.00;0.00;;;4.60;99.90;;;;;;5035536;28;20108;-72
2022/02/27 04:28:07;;;;;;;0.00;0.00;;;4.60;99.90;;;;;;5035226;28;20045;-75
2022/02/27 04:30:33;;;;;;;0.15;0.15;;;4.60;99.90;;;;;;5035035;28;20096;-72
2022/02/27 04:32:58;;;;;;;0.00;0.00;;;4.60;99.90;;;;;;5034998;28;20025;-75
2022/02/27 04:35:24;;;;;;;0.45;0.30;;;4.60;99.90;;;;;;5035507;28;20481;-72
2022/02/27 04:37:50;;;;;;;0.43;0.35;;;4.60;99.90;;;;;;5035426;28;20025;-76
2022/02/27 04:40:15;;;;;;;0.25;0.25;;;4.60;99.90;;;;;;5035750;28;20432;-76
2022/02/27 04:42:41;;;;;;;0.00;0.00;;;4.60;99.90;;;;;;5033702;28;20025;-76
2022/02/27 04:45:09;;;;;;;0.03;0.03;;;4.60;99.90;;;;;;5034758;28;20060;-75
2022/02/27 04:47:35;;;;;;;0.10;0.10;;;4.50;99.90;;;;;;5035107;28;20029;-76
2022/02/27 04:50:01;;;;;;;0.00;0.00;;;4.50;99.90;;;;;;5034737;28;20022;-72
2022/02/27 04:52:26;;;;;;;1.45;0.35;;;4.60;99.90;;;;;;5034434;28;20036;-75
2022/02/27 04:54:52;;;;;;;0.00;0.00;;;4.60;99.90;;;;;;5034445;28;20405;-75
2022/02/27 04:57:18;;;;;;;0.00;0.00;;;4.60;99.90;;;;;;5034047;28;20134;-76
2022/02/27 04:59:46;;;;;;;0.00;0.00;;;4.60;99.90;;;;;;5033010;28;20481;-75
2022/02/27 05:02:12;;;;;;;0.88;0.35;;;4.60;99.90;;;;;;5038065;28;20026;-76
2022/02/27 05:04:37;;;;;;;0.08;0.08;;;4.70;99.90;;;;;;5036687;28;20114;-72
2022/02/27 05:07:04;;;;;;;0.00;0.00;;;4.70;99.90;;;;;;5034929;28;20048;-76
2022/02/27 05:09:30;;;;;;;0.00;0.00;;;4.80;99.90;;;;;;5033563;28;20519;-76
2022/02/27 05:11:56;;;;;;;0.13;0.13;;;4.80;99.90;;;;;;5034443;28;20025;-73
2022/02/27 05:14:22;;;;;;;6.43;1.40;;;4.80;99.90;;;;;;5036429;28;20029;-75
2022/02/27 05:16:47;;;;;;;0.00;0.00;;;4.80;99.90;;;;;;5024591;28;20374;-72
2022/02/27 05:19:13;;;;;;;0.10;0.10;;;4.90;99.90;;;;;;5014833;28;20400;-76
2022/02/27 05:21:39;;;;;;;0.00;0.00;;;4.80;99.90;;;;;;5015036;28;20022;-76
2022/02/27 05:24:06;;;;;;;0.38;0.38;;;4.80;99.90;;;;;;5014228;28;20030;-76
2022/02/27 05:26:31;;;;;;;0.52;0.35;;;4.80;99.90;;;;;;5013990;28;20022;-75
2022/02/27 05:28:57;;;;;;;0.65;0.65;;;4.80;99.90;;;;;;5014390;28;20049;-76
2022/02/27 05:31:24;;;;;;;0.45;0.28;;;4.80;99.90;;;;;;5013844;28;20393;-72
2022/02/27 05:33:50;;;;;;;0.00;0.00;;;4.80;99.90;;;;;;5014380;28;20036;-75
2022/02/27 05:36:16;;;;;;;0.20;0.20;;;4.80;99.90;;;;;;5015217;28;20036;-76
2022/02/27 05:38:42;;;;;;;0.15;0.15;;;4.90;99.90;;;;;;5033616;28;20026;-76
2022/02/27 05:41:08;;;;;;;3.47;1.13;;;4.80;99.90;;;;;;5033775;28;20717;-72
2022/02/27 05:43:33;;;;;;;0.00;0.00;;;4.80;99.90;;;;;;5033426;28;20042;-76
2022/02/27 05:45:59;;;;;;;0.00;0.00;;;4.80;99.90;;;;;;5034082;28;20075;-72
2022/02/27 05:48:25;;;;;;;0.00;0.00;;;4.70;99.90;;;;;;5035582;28;20029;-76
2022/02/27 05:50:50;;;;;;;0.35;0.35;;;4.70;99.90;;;;;;5033659;28;20109;-72
2022/02/27 05:53:16;;;;;;;0.05;0.05;;;4.70;99.90;;;;;;5033270;28;20505;-75
2022/02/27 05:55:42;;;;;;;0.43;0.43;;;4.60;99.90;;;;;;5033799;28;20096;-72
2022/02/27 05:58:08;;;;;;;0.28;0.28;;;4.60;99.90;;;;;;5033226;28;20033;-75
2022/02/27 06:00:33;;;;;;;0.05;0.05;;;4.60;99.90;;;;;;5033641;28;20030;-72
2022/02/27 06:02:59;;;;;;;0.28;0.25;;;4.50;99.90;;;;;;5032721;28;20029;-75
2022/02/27 06:05:25;;;;;;;0.05;0.05;;;4.50;99.90;;;;;;5032735;28;20490;-76
2022/02/27 06:07:50;;;;;;;0.00;0.00;;;4.60;99.90;;;;;;5033325;28;20501;-72
2022/02/27 06:10:16;;;;;;;0.10;0.10;;;4.50;99.90;;;;;;5032739;28;20030;-73
2022/02/27 06:12:49;;;;;;;0.10;0.10;;;4.50;99.90;;;;;;5032553;28;20108;-73
2022/02/27 06:15:18;;;;;;;3.03;0.35;;;4.50;99.90;;;;;;5033394;28;20022;-72
2022/02/27 06:17:44;;;;;;;0.00;0.00;;;4.50;99.90;;;;;;5016714;28;20025;-75
2022/02/27 06:20:10;;;;;;;0.52;0.30;;;4.50;99.90;;;;;;5013575;28;20022;-75
2022/02/27 06:22:44;;;;;;;0.17;0.17;;;4.50;99.90;;;;;;5013496;28;20125;-72
2022/02/27 06:25:11;;;;;;;0.00;0.00;;;4.50;99.90;;;;;;5013373;28;20026;-72
2022/02/27 06:27:42;;;;;;;1.00;1.00;;;4.50;99.90;;;;;;5013450;28;20096;-72
2022/02/27 06:30:15;;;;;;;0.13;0.10;;;4.50;99.90;;;;;;5013777;28;20029;-72
2022/02/27 06:32:42;;;;;;;0.55;0.55;;;4.50;99.90;;;;;;5013842;28;20033;-76
2022/02/27 06:35:09;;;;;;;0.00;0.00;;;4.40;99.90;;;;;;5014143;28;20018;-72
2022/02/27 06:37:35;;;;;;;0.30;0.30;;;4.40;99.90;;;;;;5032942;28;20048;-73
2022/02/27 06:40:01;;;;;;;3.00;1.02;;;4.40;99.90;;;;;;5032502;28;20520;-76
2022/02/27 06:42:27;;;;;;;0.10;0.10;;;4.30;99.90;;;;;;5032436;28;20055;-71
2022/02/27 06:44:53;;;;;;;0.00;0.00;;;4.30;99.90;;;;;;5034332;28;20048;-75
2022/02/27 06:47:19;;;;;;;0.17;0.17;;;4.30;99.90;;;;;;5032831;28;20022;-72
2022/02/27 06:49:44;;;;;;;0.00;0.00;;;4.20;99.90;;;;;;5032633;28;20037;-72
2022/02/27 06:52:10;;;;;;;1.77;0.25;;;4.20;99.90;;;;;;5032771;28;20100;-72
2022/02/27 06:54:36;;;;;;;2.42;0.43;;;4.20;99.90;;;;;;5032584;28;20030;-72
2022/02/27 06:57:02;;;;;;;0.55;0.55;;;4.30;99.90;;;;;;5037119;28;20025;-72
2022/02/27 06:59:28;;;;;;;0.25;0.25;;;4.20;99.90;;;;;;5037407;28;20026;-73
2022/02/27 07:01:53;;;;;;;0.00;0.00;;;4.20;99.90;;;;;;5037006;28;20366;-72
2022/02/27 07:04:19;;;;;;;1.30;0.77;;;4.20;99.90;;;;;;5036644;28;20606;-75
2022/02/27 07:06:45;;;;;;;0.00;0.00;;;4.20;99.90;;;;;;5036722;28;20025;-75
2022/02/27 07:09:10;;;;;;;0.00;0.00;;;4.30;99.90;;;;;;5036334;28;20377;-72
2022/02/27 07:11:36;;;;;;;0.00;0.00;;;4.30;99.90;;;;;;5036087;28;20025;-76
2022/02/27 07:14:02;;;;;;;0.00;0.00;;;4.30;99.90;;;;;;5036150;28;20400;-76
2022/02/27 07:16:27;;;;;;;0.08;0.08;;;4.40;99.90;;;;;;5028764;28;20014;-76
2022/02/27 07:18:55;;;;;;;0.00;0.00;;;4.40;99.90;;;;;;5015636;28;20121;-72
2022/02/27 07:21:21;;;;;;;0.20;0.20;;;4.50;99.90;;;;;;5016682;28;20030;-76
2022/02/27 07:23:47;;;;;;;0.00;0.00;;;4.50;99.90;;;;;;5015199;28;20045;-75
2022/02/27 07:26:12;;;;;;;0.17;0.10;;;4.60;99.90;;;;;;5017048;28;20026;-72
2022/02/27 07:28:38;;;;;;;0.00;0.00;;;4.60;99.90;;;;;;5016675;28;20759;-72
2022/02/27 07:31:04;;;;;;;0.00;0.00;;;4.70;99.90;;;;;;5016683;28;20036;-76
2022/02/27 07:33:29;;;;;;;0.10;0.10;;;4.70;99.90;;;;;;5016604;28;20026;-76
2022/02/27 07:35:55;;;;;;;0.00;0.00;;;4.80;99.90;;;;;;5016531;28;20030;-76
2022/02/27 07:38:21;;;;;;;0.00;0.00;;;4.90;99.90;;;;;;5034148;28;20040;-75
2022/02/27 07:40:49;;;;;;;0.00;0.00;;;5.00;99.90;;;;;;5036397;28;20026;-72
2022/02/27 07:43:15;;;;;;;1.27;0.13;;;5.10;99.90;;;;;;5037042;28;20037;-76
2022/02/27 07:45:42;;;;;;;0.00;0.00;;;5.10;99.90;;;;;;5036567;28;20018;-73
2022/02/27 07:48:07;;;;;;;0.00;0.00;;;5.20;99.90;;;;;;5035903;28;20038;-76
2022/02/27 07:50:33;;;;;;;0.30;0.30;;;5.40;99.90;;;;;;5035005;28;20037;-73
2022/02/27 07:52:59;;;;;;;0.00;0.00;;;5.50;99.90;;;;;;5035938;28;20025;-76
2022/02/27 07:55:25;;;;;;;0.32;0.32;;;5.60;99.90;;;;;;5035355;28;20447;-76
2022/02/27 07:57:51;;;;;;;0.10;0.10;;;5.80;99.90;;;;;;5035871;28;20057;-76
2022/02/27 08:00:17;;;;;;;0.20;0.20;;;6.00;99.90;;;;;;5035888;28;20034;-76
2022/02/27 08:02:43;;;;;;;3.03;0.98;;;6.10;99.90;;;;;;5034196;28;20108;-76
2022/02/27 08:05:09;;;;;;;0.00;0.00;;;6.30;99.90;;;;;;5036635;28;20104;-72
2022/02/27 08:07:34;;;;;;;0.00;0.00;;;6.70;99.90;;;;;;5035110;28;20075;-75
2022/02/27 08:10:00;;;;;;;0.52;0.52;;;6.90;99.90;;;;;;5035548;28;20566;-76
2022/02/27 08:12:28;;;;;;;0.00;0.00;;;6.60;99.90;;;;;;5034303;28;20514;-72
2022/02/27 08:14:54;;;;;;;0.93;0.38;;;7.00;99.90;;;;;;5035477;28;20108;-72
2022/02/27 08:17:20;;;;;;;0.00;0.00;;;6.90;99.90;;;;;;5021280;28;20453;-76
2022/02/27 08:19:48;;;;;;;0.00;0.00;;;7.10;99.90;;;;;;5015434;28;20370;-72
2022/02/27 08:22:14;;;;;;;0.00;0.00;;;7.10;99.90;;;;;;5015793;28;20060;-72
2022/02/27 08:24:39;;;;;;;0.20;0.20;;;7.10;99.90;;;;;;5015079;28;20034;-72
2022/02/27 08:27:05;;;;;;;0.32;0.10;;;7.10;99.90;;;;;;5014774;28;20424;-72
2022/02/27 08:29:31;;;;;;;0.15;0.10;;;7.10;99.90;;;;;;5015267;28;20397;-76
2022/02/27 08:31:59;;;;;;;0.32;0.32;;;7.40;99.90;;;;;;5016342;28;20022;-76
2022/02/27 08:34:27;;;;;;;9.52;0.63;;;7.60;99.90;;;;;;5018722;28;20032;-76
2022/02/27 08:36:54;;;;;;;0.00;0.00;;;7.70;99.90;;;;;;5035339;28;20028;-73
2022/02/27 08:39:19;;;;;;;6.70;2.10;;;7.90;99.90;;;;;;5035012;28;20034;-76
2022/02/27 08:41:45;;;;;;;0.00;0.00;;;9.30;99.90;;;;;;5035401;28;20022;-73
2022/02/27 08:44:11;;;;;;;0.35;0.05;;;10.30;99.90;;;;;;5034953;28;20053;-76
2022/02/27 08:46:38;;;;;;;0.08;0.00;;;11.40;99.90;;;;;;5035233;28;20040;-76
2022/02/27 08:49:06;;;;;;;0.38;0.25;;;12.10;99.40;;;;;;5035318;28;20501;-78
2022/02/27 08:51:32;;;;;;;5.18;1.50;;;12.30;99.10;;;;;;5035403;28;20076;-76
2022/02/27 08:53:57;;;;;;;0.35;0.35;;;12.40;98.50;;;;;;5034611;28;20037;-77
2022/02/27 08:56:23;;;;;;;7.32;0.20;;;12.30;98.80;;;;;;5034701;28;20026;-72
2022/02/27 08:58:49;;;;;;;0.00;0.00;;;12.80;98.90;;;;;;5034912;28;20075;-77
2022/02/27 09:01:15;;;;;;;0.00;0.00;;;12.60;98.70;;;;;;5034087;28;20440;-77
2022/02/27 09:03:41;;;;;;;0.00;0.00;;;11.80;99.30;;;;;;5036317;28;20052;-74
2022/02/27 09:06:08;;;;;;;0.00;0.00;;;11.30;99.90;;;;;;5034400;28;20029;-77
2022/02/27 09:08:35;;;;;;;0.73;0.73;;;10.90;99.90;;;;;;5034361;28;20508;-77
2022/02/27 09:11:01;;;;;;;0.00;0.00;;;10.80;99.90;;;;;;5034624;28;20021;-73
2022/02/27 09:13:26;;;;;;;0.00;0.00;;;10.60;99.90;;;;;;5034071;28;20073;-77
2022/02/27 09:15:52;;;;;;;0.32;0.20;;;10.30;99.90;;;;;;5033932;28;20038;-73
2022/02/27 09:18:18;;;;;;;0.10;0.10;;;10.30;99.90;;;;;;5013747;28;20056;-77
2022/02/27 09:20:44;;;;;;;0.45;0.35;;;10.60;99.90;;;;;;5014435;28;20085;-77
2022/02/27 09:23:10;;;;;;;1.98;1.17;;;11.00;99.90;;;;;;5014518;28;20014;-77
2022/02/27 09:25:36;;;;;;;0.00;0.00;;;11.30;99.90;;;;;;5014783;28;20052;-77
2022/02/27 09:28:02;;;;;;;0.00;0.00;;;11.60;99.90;;;;;;5014111;28;20401;-77
2022/02/27 09:30:27;;;;;;;0.00;0.00;;;12.20;99.90;;;;;;5014318;28;20120;-77
2022/02/27 09:32:53;;;;;;;0.20;0.10;;;13.40;99.00;;;;;;5014304;28;20030;-76
2022/02/27 09:35:24;;;;;;;0.00;0.00;;;13.40;99.30;;;;;;5016965;28;20390;-77
2022/02/27 09:37:50;;;;;;;0.60;0.60;;;12.90;99.60;;;;;;5027879;28;20104;-76
2022/02/27 09:40:19;;;;;;;0.00;0.00;;;13.30;99.90;;;;;;5033627;28;20029;-76
2022/02/27 09:42:45;;;;;;;0.28;0.28;;;12.90;99.90;;;;;;5033820;28;20544;-74
2022/02/27 09:45:11;;;;;;;2.95;1.45;;;13.50;99.60;;;;;;5035195;28;20069;-76
2022/02/27 09:47:37;;;;;;;3.75;0.40;;;14.50;98.10;;;;;;5034048;28;20030;-77
2022/02/27 09:50:03;;;;;;;0.38;0.32;;;15.60;97.60;;;;;;5033366;28;20022;-73
2022/02/27 09:52:29;;;;;;;0.28;0.28;;;15.90;96.50;;;;;;5033571;28;20484;-76
2022/02/27 09:54:58;;;;;;;2.92;0.10;;;15.50;97.00;;;;;;5033315;28;20033;-78
2022/02/27 09:57:24;;;;;;;3.72;0.20;;;14.70;97.30;;;;;;5033572;28;20022;-72
2022/02/27 09:59:50;;;;;;;0.10;0.10;;;13.80;98.70;;;;;;5033670;28;20063;-75
2022/02/27 10:02:16;;;;;;;1.77;0.70;;;12.80;99.90;;;;;;5033580;28;20030;-73
2022/02/27 10:04:43;;;;;;;0.28;0.28;;;11.90;99.90;;;;;;5033270;28;20516;-76
2022/02/27 10:07:13;;;;;;;0.13;0.13;;;11.30;99.90;;;;;;5033905;28;20025;-76
2022/02/27 10:09:39;;;;;;;0.00;0.00;;;11.20;99.90;;;;;;5033217;28;20021;-73
2022/02/27 10:12:31;;;;;;;0.10;0.10;;;11.20;99.90;;;;;;5032463;28;20566;-75
2022/02/27 10:15:03;;;;;;;0.43;0.43;;;11.10;99.90;;;;;;5032089;28;20037;-72
2022/02/27 10:17:32;;;;;;;0.00;0.00;;;11.20;99.90;;;;;;5019088;28;20030;-75
2022/02/27 10:19:58;;;;;;;2.65;1.35;;;11.20;99.90;;;;;;5012667;28;20018;-72
2022/02/27 10:22:33;;;;;;;0.10;0.10;;;11.20;99.90;;;;;;5013697;28;20440;-75
2022/02/27 10:25:00;;;;;;;0.20;0.20;;;11.20;99.90;;;;;;5013315;28;20018;-72
2022/02/27 10:27:59;;;;;;;0.15;0.15;;;10.90;99.90;;;;;;5013617;28;20026;-74
2022/02/27 10:30:33;;;;;;;0.00;0.00;;;10.90;99.90;;;;;;5001380;28;20042;-72
2022/02/27 10:33:14;;;;;;;0.00;0.00;;;10.90;99.90;;;;;;5018121;28;20382;-72
2022/02/27 10:35:52;;;;;;;0.10;0.10;;;11.10;99.90;;;;;;5013371;28;20057;-75
2022/02/27 10:38:45;;;;;;;0.00;0.00;;;11.10;99.90;;;;;;5030295;28;20021;-75
2022/02/27 10:41:14;;;;;;;0.80;0.47;;;11.10;99.90;;;;;;5033023;28;20030;-75
2022/02/27 10:43:44;;;;;;;1.55;0.98;;;11.20;99.90;;;;;;5033004;28;20037;-73
2022/02/27 10:46:11;;;;;;;0.22;0.10;;;11.30;99.90;;;;;;5033388;28;20021;-72
2022/02/27 10:48:37;;;;;;;0.03;0.03;;;11.40;99.90;;;;;;5032491;28;20049;-72
2022/02/27 10:51:08;;;;;;;0.98;0.70;;;11.60;99.90;;;;;;5032698;28;20122;-72
2022/02/27 10:53:39;;;;;;;3.83;0.65;;;11.50;99.90;;;;;;5032683;28;20025;-73
2022/02/27 10:56:09;;;;;;;8.85;1.67;;;11.80;99.90;;;;;;5033043;28;20370;-72
2022/02/27 10:58:43;;;;;;;0.22;0.22;;;11.90;99.90;;;;;;5033139;28;20041;-72
2022/02/27 11:01:21;;;;;;;12.07;0.32;;;11.70;99.90;;;;;;5032600;28;20068;-73
2022/02/27 11:03:54;;;;;;;0.00;0.00;;;11.80;99.90;;;;;;5033850;28;20041;-73
2022/02/27 11:06:21;;;;;;;0.10;0.10;;;12.20;99.90;;;;;;5032887;28;20021;-72
2022/02/27 11:08:47;;;;;;;0.63;0.63;;;12.50;99.90;;;;;;5032372;28;20084;-75
2022/02/27 11:11:14;;;;;;;1.65;1.08;;;12.90;99.90;;;;;;5032775;28;20040;-72
2022/02/27 11:13:43;;;;;;;0.65;0.25;;;13.10;99.90;;;;;;5032851;28;20083;-73
2022/02/27 11:16:09;;;;;;;0.45;0.28;;;13.30;99.90;;;;;;5028677;28;20034;-76
2022/02/27 11:18:36;;;;;;;0.00;0.00;;;13.40;99.90;;;;;;5012883;28;20370;-73
2022/02/27 11:21:02;;;;;;;0.20;0.20;;;13.40;99.90;;;;;;5012914;28;20033;-76
2022/02/27 11:23:28;;;;;;;0.22;0.22;;;13.30;99.90;;;;;;5013042;28;20049;-73
2022/02/27 11:25:55;;;;;;;0.57;0.57;;;13.50;99.90;;;;;;5013255;28;20026;-73
2022/02/27 11:28:24;;;;;;;0.57;0.57;;;13.50;99.90;;;;;;5012870;28;20030;-73
2022/02/27 11:30:59;;;;;;;0.20;0.20;;;13.60;99.90;;;;;;5013111;28;20029;-73
2022/02/27 11:33:25;;;;;;;0.00;0.00;;;13.30;99.90;;;;;;5012869;28;20477;-73
2022/02/27 11:35:59;;;;;;;45.63;4.22;;;13.20;99.90;;;;;;5013122;28;20030;-73
2022/02/27 11:38:30;;;;;;;1.08;1.00;;;13.50;99.90;;;;;;5030958;28;20448;-73
2022/02/27 11:40:59;;;;;;;0.70;0.70;;;13.70;99.90;;;;;;5032585;28;20022;-74
2022/02/27 11:43:55;;;;;;;0.10;0.10;;;13.80;99.90;;;;;;5033549;28;20048;-72
2022/02/27 11:46:40;;;;;;;3.03;0.20;;;13.70;99.90;;;;;;5035805;28;20022;-73
2022/02/27 11:49:07;;;;;;;0.88;0.30;;;13.60;99.90;;;;;;5035773;28;20104;-73
2022/02/27 11:51:36;;;;;;;0.00;0.00;;;13.90;99.90;;;;;;5036160;28;20515;-73
2022/02/27 11:54:08;;;;;;;1.45;0.77;;;14.10;99.90;;;;;;5036296;28;20468;-77
2022/02/27 11:56:34;;;;;;;0.53;0.53;;;14.20;99.90;;;;;;5035427;28;20026;-76
2022/02/27 11:59:03;;;;;;;0.20;0.20;;;14.30;99.90;;;;;;5035734;28;20028;-73
2022/02/27 12:01:55;;;;;;;0.57;0.57;;;14.20;99.90;;;;;;5035920;28;20021;-76
2022/02/27 12:04:21;;;;;;;0.40;0.40;;;14.00;99.90;;;;;;5035386;28;20121;-76
2022/02/27 12:07:05;;;;;;;0.10;0.10;;;13.60;99.90;;;;;;5035738;28;20160;-75
2022/02/27 12:09:52;;;;;;;1.15;1.05;;;13.40;99.90;;;;;;5035419;28;20160;-73
2022/02/27 12:12:43;;;;;;;0.38;0.35;;;13.50;99.90;;;;;;5035526;28;20151;-73
2022/02/27 12:15:27;;;;;;;0.00;0.00;;;13.30;99.90;;;;;;5035243;28;20045;-76
2022/02/27 12:18:01;;;;;;;0.17;0.17;;;13.70;99.90;;;;;;5016800;28;20105;-73
2022/02/27 12:20:57;;;;;;;0.30;0.30;;;14.00;99.90;;;;;;5015456;28;20018;-75
2022/02/27 12:23:31;;;;;;;4.65;1.15;;;14.10;99.90;;;;;;5015805;28;20096;-73
2022/02/27 12:25:59;;;;;;;1.20;0.75;;;14.00;99.90;;;;;;5018996;28;20091;-76
2022/02/27 12:28:52;;;;;;;0.00;0.00;;;14.20;99.90;;;;;;5015979;28;20021;-76
2022/02/27 12:31:29;;;;;;;6.18;1.33;;;14.30;99.90;;;;;;5015486;28;20022;-73
2022/02/27 12:34:08;;;;;;;0.10;0.10;;;14.50;99.90;;;;;;5015489;28;20037;-73
2022/02/27 12:36:36;;;;;;;0.00;0.00;;;14.30;99.90;;;;;;5021356;28;20455;-76
2022/02/27 12:39:04;;;;;;;0.20;0.20;;;14.30;99.90;;;;;;5034871;28;20057;-73
2022/02/27 12:41:32;;;;;;;1.25;0.20;;;14.30;99.90;;;;;;5035408;28;20018;-74
2022/02/27 12:43:59;;;;;;;2.58;0.73;;;14.50;99.90;;;;;;5034589;28;20049;-74
2022/02/27 12:46:25;;;;;;;0.47;0.15;;;14.60;99.90;;;;;;5036568;28;20049;-76
2022/02/27 12:51:38;;;;;;;0.08;0.08;;;14.90;99.90;;;;;;5035076;28;20079;-76
2022/02/27 12:54:14;;;;;;;0.43;0.30;;;15.00;99.90;;;;;;5033196;28;20482;-74
2022/02/27 12:56:40;;;;;;;0.55;0.45;;;14.90;99.90;;;;;;5034820;28;20021;-74
2022/02/27 12:59:06;;;;;;;1.58;0.60;;;15.10;99.90;;;;;;5035043;28;20029;-74